createdAt,value
2019-01-18T00:01:17.448Z,2.50
2019-01-18T00:03:46.576Z,2.50
2019-01-18T00:06:15.760Z,2.50
2019-01-18T00:08:44.840Z,2.50
2019-01-18T00:11:13.952Z,2.50
2019-01-18T00:13:43.039Z,2.50
2019-01-18T00:16:12.207Z,2.50
2019-01-18T00:18:41.332Z,2.50
2019-01-18T00:21:10.448Z,2.50
2019-01-18T00:23:39.560Z,2.50
2019-01-18T00:26:08.771Z,2.50
2019-01-18T00:28:37.859Z,2.40
2019-01-18T00:31:06.992Z,2.40
2019-01-18T00:33:36.133Z,2.40
2019-01-18T00:36:05.309Z,2.50
2019-01-18T00:38:34.533Z,2.50
2019-01-18T00:41:03.622Z,2.40
2019-01-18T00:43:34.275Z,2.40
2019-01-18T00:46:03.468Z,2.40
2019-01-18T00:48:32.565Z,2.40
2019-01-18T00:51:01.676Z,2.30
2019-01-18T00:53:30.788Z,2.40
2019-01-18T00:55:59.883Z,2.40
2019-01-18T00:58:29.011Z,2.40
2019-01-18T01:00:58.180Z,2.40
2019-01-18T01:03:27.304Z,2.50
2019-01-18T01:05:56.478Z,2.50
2019-01-18T01:08:25.676Z,2.50
2019-01-18T01:10:54.844Z,2.50
2019-01-18T01:13:23.952Z,2.50
2019-01-18T01:15:53.056Z,2.50
2019-01-18T01:18:22.159Z,2.50
2019-01-18T01:20:51.447Z,2.50
2019-01-18T01:23:20.553Z,2.50
2019-01-18T01:25:49.759Z,2.50
2019-01-18T01:28:18.856Z,2.50
2019-01-18T01:30:48.047Z,2.50
2019-01-18T01:33:17.243Z,2.50
2019-01-18T01:35:46.341Z,2.60
2019-01-18T01:38:15.451Z,2.50
2019-01-18T01:40:44.598Z,2.50
2019-01-18T01:43:13.784Z,2.50
2019-01-18T01:45:42.899Z,2.50
2019-01-18T01:48:11.984Z,2.50
2019-01-18T01:50:41.087Z,2.50
2019-01-18T01:53:10.272Z,2.50
2019-01-18T01:55:39.376Z,2.50
2019-01-18T01:58:08.479Z,2.50
2019-01-18T02:00:38.183Z,2.60
2019-01-18T02:03:07.316Z,2.50
2019-01-18T02:05:36.439Z,2.50
2019-01-18T02:08:05.541Z,2.50
2019-01-18T02:10:34.644Z,2.50
2019-01-18T02:13:03.759Z,2.60
2019-01-18T02:15:32.891Z,2.50
2019-01-18T02:18:02.082Z,2.40
2019-01-18T02:20:31.218Z,2.00
2019-01-18T02:23:00.309Z,1.80
2019-01-18T02:25:29.442Z,1.60
2019-01-18T02:27:58.607Z,1.40
2019-01-18T02:30:29.177Z,1.20
2019-01-18T02:32:58.380Z,1.20
2019-01-18T02:35:27.523Z,1.20
2019-01-18T02:37:56.621Z,1.10
2019-01-18T02:40:25.740Z,1.10
2019-01-18T02:42:54.834Z,1.10
2019-01-18T02:45:24.427Z,1.10
2019-01-18T02:47:53.504Z,1.10
2019-01-18T02:50:22.616Z,1.10
2019-01-18T02:52:51.749Z,1.10
2019-01-18T02:55:28.519Z,1.10
2019-01-18T02:57:52.163Z,1.10
2019-01-18T03:00:22.999Z,1.10
2019-01-18T03:02:52.251Z,1.10
2019-01-18T03:05:26.208Z,0.90
2019-01-18T03:07:55.292Z,0.90
2019-01-18T03:10:26.428Z,0.70
2019-01-18T03:12:55.616Z,0.50
2019-01-18T03:15:24.772Z,0.70
2019-01-18T03:17:53.961Z,0.70
2019-01-18T03:20:23.076Z,0.60
2019-01-18T03:22:52.155Z,0.40
2019-01-18T03:25:26.766Z,0.40
2019-01-18T03:27:55.937Z,0.40
2019-01-18T03:30:44.206Z,0.40
2019-01-18T03:33:13.390Z,0.40
2019-01-18T03:35:42.486Z,0.30
2019-01-18T03:38:11.596Z,0.30
2019-01-18T03:40:40.734Z,0.40
2019-01-18T03:43:09.820Z,0.30
2019-01-18T03:45:38.943Z,0.30
2019-01-18T03:48:08.129Z,0.30
2019-01-18T03:50:37.240Z,0.40
2019-01-18T03:53:06.428Z,0.10
2019-01-18T03:55:35.525Z,0.00
2019-01-18T03:58:04.663Z,0.10
2019-01-18T04:00:33.770Z,0.10
2019-01-18T04:03:02.932Z,0.00
2019-01-18T04:05:32.048Z,-0.10
2019-01-18T04:08:01.170Z,0.00
2019-01-18T04:10:30.344Z,0.10
2019-01-18T04:12:59.473Z,0.00
2019-01-18T04:15:28.700Z,0.10
2019-01-18T04:17:57.888Z,0.10
2019-01-18T04:20:27.091Z,0.10
2019-01-18T04:22:56.243Z,0.20
2019-01-18T04:25:30.487Z,0.20
2019-01-18T04:27:59.664Z,0.20
2019-01-18T04:30:33.385Z,0.20
2019-01-18T04:32:59.612Z,0.20
2019-01-18T04:35:28.793Z,0.00
2019-01-18T04:37:57.986Z,0.20
2019-01-18T04:40:27.652Z,0.30
2019-01-18T04:42:56.999Z,0.30
2019-01-18T04:45:26.110Z,0.30
2019-01-18T04:47:55.218Z,0.30
2019-01-18T04:50:25.785Z,0.30
2019-01-18T04:53:14.136Z,0.20
2019-01-18T04:55:43.290Z,0.20
2019-01-18T04:58:12.424Z,0.30
2019-01-18T05:00:41.801Z,0.20
2019-01-18T05:03:11.022Z,0.30
2019-01-18T05:05:40.219Z,0.20
2019-01-18T05:08:09.333Z,0.30
2019-01-18T05:10:38.429Z,0.10
2019-01-18T05:13:07.593Z,0.10
2019-01-18T05:15:36.712Z,0.10
2019-01-18T05:18:06.257Z,0.20
2019-01-18T05:20:35.567Z,0.20
2019-01-18T05:23:04.873Z,0.20
2019-01-18T05:25:33.991Z,0.20
2019-01-18T05:28:03.105Z,0.20
2019-01-18T05:30:32.316Z,0.20
2019-01-18T05:33:01.453Z,0.20
2019-01-18T05:35:30.632Z,0.20
2019-01-18T05:38:00.772Z,0.20
2019-01-18T05:40:29.932Z,0.10
2019-01-18T05:42:59.062Z,0.00
2019-01-18T05:45:28.184Z,0.00
2019-01-18T05:47:57.362Z,0.00
2019-01-18T05:50:28.259Z,0.00
2019-01-18T05:52:57.451Z,0.00
2019-01-18T05:55:26.630Z,0.00
2019-01-18T05:57:55.863Z,0.00
2019-01-18T06:00:35.043Z,0.00
2019-01-18T06:03:04.159Z,-0.10
2019-01-18T06:05:34.655Z,-0.10
2019-01-18T06:08:03.787Z,-0.10
2019-01-18T06:10:32.910Z,-0.20
2019-01-18T06:13:02.039Z,-0.10
2019-01-18T06:15:31.157Z,-0.20
2019-01-18T06:18:00.259Z,-0.10
2019-01-18T06:20:29.403Z,-0.20
2019-01-18T06:22:58.529Z,-0.10
2019-01-18T06:25:28.751Z,-0.20
2019-01-18T06:27:57.884Z,-0.10
2019-01-18T06:30:27.064Z,-0.10
2019-01-18T06:32:56.253Z,-0.10
2019-01-18T06:35:25.352Z,-0.20
2019-01-18T06:37:54.580Z,-0.20
2019-01-18T06:40:23.791Z,-0.10
2019-01-18T06:42:52.985Z,-0.10
2019-01-18T06:45:22.873Z,-0.10
2019-01-18T06:47:51.976Z,0.00
2019-01-18T06:50:21.235Z,-0.10
2019-01-18T06:52:50.456Z,-0.10
2019-01-18T06:55:19.648Z,-0.30
2019-01-18T06:57:48.795Z,-0.20
2019-01-18T07:00:29.798Z,-0.20
2019-01-18T07:02:58.948Z,-0.10
2019-01-18T07:05:28.252Z,-0.10
2019-01-18T07:07:57.488Z,-0.10
2019-01-18T07:10:26.854Z,0.00
2019-01-18T07:12:56.239Z,0.00
2019-01-18T07:15:25.503Z,0.00
2019-01-18T07:17:54.651Z,-0.10
2019-01-18T07:20:23.860Z,-0.20
2019-01-18T07:22:53.062Z,-0.10
2019-01-18T07:25:24.507Z,-0.30
2019-01-18T07:27:53.682Z,-0.20
2019-01-18T07:30:25.496Z,-0.10
2019-01-18T07:32:54.852Z,-0.10
2019-01-18T07:35:24.001Z,-0.10
2019-01-18T07:37:53.333Z,-0.10
2019-01-18T07:40:22.560Z,-0.10
2019-01-18T07:42:51.758Z,-0.10
2019-01-18T07:45:23.391Z,0.00
2019-01-18T07:47:52.619Z,0.00
2019-01-18T07:50:21.836Z,0.00
2019-01-18T07:52:50.982Z,0.00
2019-01-18T07:55:20.470Z,0.10
2019-01-18T07:57:49.617Z,0.00
2019-01-18T08:00:21.286Z,0.10
2019-01-18T08:02:50.443Z,0.10
2019-01-18T08:05:20.284Z,0.20
2019-01-18T08:07:49.391Z,0.20
2019-01-18T08:10:19.520Z,0.20
2019-01-18T08:12:48.666Z,0.10
2019-01-18T08:15:19.733Z,0.30
2019-01-18T08:17:48.904Z,0.20
2019-01-18T08:20:19.603Z,0.30
2019-01-18T08:22:48.775Z,0.30
2019-01-18T08:25:17.976Z,0.50
2019-01-18T08:27:47.101Z,0.50
2019-01-18T08:30:18.488Z,0.50
2019-01-18T08:32:52.480Z,0.40
2019-01-18T08:35:22.680Z,0.60
2019-01-18T08:37:51.931Z,0.60
2019-01-18T08:40:26.804Z,0.60
2019-01-18T08:42:56.050Z,0.50
2019-01-18T08:45:28.299Z,0.50
2019-01-18T08:47:57.458Z,0.50
2019-01-18T08:50:26.648Z,0.60
2019-01-18T08:52:55.836Z,0.40
2019-01-18T08:55:25.904Z,0.50
2019-01-18T08:57:55.098Z,0.50
2019-01-18T09:00:25.830Z,0.60
2019-01-18T09:02:55.049Z,0.60
2019-01-18T09:05:25.248Z,0.50
2019-01-18T09:07:55.283Z,0.60
2019-01-18T09:10:27.125Z,0.60
2019-01-18T09:12:56.426Z,0.80
2019-01-18T09:15:26.756Z,0.90
2019-01-18T09:17:55.907Z,1.00
2019-01-18T09:20:26.711Z,1.20
2019-01-18T09:22:55.870Z,1.30
2019-01-18T09:25:25.088Z,1.40
2019-01-18T09:27:54.384Z,1.50
2019-01-18T09:30:25.923Z,1.40
2019-01-18T09:32:56.043Z,1.40
2019-01-18T09:35:26.012Z,1.50
2019-01-18T09:37:56.435Z,1.80
2019-01-18T09:40:30.427Z,2.10
2019-01-18T09:42:59.572Z,2.20
2019-01-18T09:45:28.676Z,2.10
2019-01-18T09:47:57.879Z,2.20
2019-01-18T09:50:29.068Z,1.90
2019-01-18T09:52:58.599Z,2.20
2019-01-18T09:55:27.758Z,2.50
2019-01-18T09:57:56.884Z,2.70
2019-01-18T10:00:31.403Z,2.90
2019-01-18T10:03:01.201Z,2.80
2019-01-18T10:05:31.598Z,3.20
2019-01-18T10:08:01.414Z,2.60
2019-01-18T10:10:30.929Z,2.70
2019-01-18T10:13:00.244Z,2.80
2019-01-18T10:15:48.598Z,2.60
2019-01-18T10:18:17.767Z,2.60
2019-01-18T10:20:46.883Z,2.70
2019-01-18T10:23:16.037Z,3.20
2019-01-18T10:25:45.204Z,3.50
2019-01-18T10:28:14.375Z,4.10
2019-01-18T10:30:44.399Z,4.30
2019-01-18T10:33:13.602Z,4.30
2019-01-18T10:35:43.132Z,4.40
2019-01-18T10:38:12.242Z,4.90
2019-01-18T10:40:41.421Z,5.30
2019-01-18T10:43:10.635Z,5.70
2019-01-18T10:45:39.785Z,6.10
2019-01-18T10:48:08.956Z,6.80
2019-01-18T10:50:38.062Z,7.40
2019-01-18T10:53:07.261Z,7.80
2019-01-18T10:55:36.386Z,9.40
2019-01-18T10:58:05.520Z,10.10
2019-01-18T11:00:36.290Z,10.80
2019-01-18T11:03:05.908Z,11.50
2019-01-18T11:05:35.237Z,12.60
2019-01-18T11:08:04.369Z,13.00
2019-01-18T11:10:33.479Z,13.20
2019-01-18T11:13:02.676Z,12.90
2019-01-18T11:15:35.924Z,13.20
2019-01-18T11:18:02.941Z,13.50
2019-01-18T11:20:39.247Z,13.80
2019-01-18T11:23:08.467Z,13.60
2019-01-18T11:25:37.584Z,13.70
2019-01-18T11:28:06.730Z,13.90
2019-01-18T11:30:35.893Z,14.00
2019-01-18T11:33:05.055Z,13.20
2019-01-18T11:35:34.174Z,13.30
2019-01-18T11:38:03.335Z,13.30
2019-01-18T11:40:32.452Z,13.60
2019-01-18T11:43:01.608Z,14.10
2019-01-18T11:45:30.799Z,13.80
2019-01-18T11:48:00.043Z,13.60
2019-01-18T11:50:30.537Z,12.90
2019-01-18T11:52:59.656Z,10.30
2019-01-18T11:55:28.748Z,10.50
2019-01-18T11:57:57.868Z,11.70
2019-01-18T12:00:27.840Z,12.60
2019-01-18T12:02:56.963Z,10.90
2019-01-18T12:05:26.137Z,11.90
2019-01-18T12:07:55.345Z,12.30
2019-01-18T12:10:26.867Z,12.80
2019-01-18T12:12:57.113Z,11.60
2019-01-18T12:15:26.332Z,12.70
2019-01-18T12:17:55.497Z,12.40
2019-01-18T12:20:27.342Z,12.50
2019-01-18T12:22:56.465Z,12.70
2019-01-18T12:25:25.572Z,13.00
2019-01-18T12:27:54.727Z,13.40
2019-01-18T12:30:26.667Z,12.30
2019-01-18T12:32:55.764Z,12.20
2019-01-18T12:35:24.889Z,13.10
2019-01-18T12:37:53.989Z,13.20
2019-01-18T12:40:23.108Z,13.00
2019-01-18T12:42:52.248Z,13.00
2019-01-18T12:45:21.982Z,12.30
2019-01-18T12:47:51.092Z,11.80
2019-01-18T12:50:31.428Z,10.10
2019-01-18T12:53:00.529Z,9.20
2019-01-18T12:55:29.639Z,11.20
2019-01-18T12:57:58.768Z,10.70
2019-01-18T13:00:27.872Z,10.80
2019-01-18T13:02:57.099Z,9.40
2019-01-18T13:05:29.084Z,10.80
2019-01-18T13:07:58.208Z,10.50
2019-01-18T13:10:27.333Z,11.50
2019-01-18T13:12:56.427Z,11.70
2019-01-18T13:15:46.648Z,11.30
2019-01-18T13:18:15.728Z,10.80
2019-01-18T13:20:44.847Z,10.20
2019-01-18T13:23:14.050Z,9.70
2019-01-18T13:25:43.140Z,10.50
2019-01-18T13:28:12.249Z,11.30
2019-01-18T13:30:41.403Z,11.20
2019-01-18T13:33:10.509Z,11.00
2019-01-18T13:35:39.644Z,11.50
2019-01-18T13:38:08.749Z,11.10
2019-01-18T13:40:37.964Z,11.80
2019-01-18T13:43:07.680Z,11.70
2019-01-18T13:45:41.384Z,11.20
2019-01-18T13:48:10.516Z,10.70
2019-01-18T13:50:39.620Z,10.70
2019-01-18T13:53:08.728Z,10.00
2019-01-18T13:55:37.846Z,9.30
2019-01-18T13:58:07.021Z,9.20
2019-01-18T14:00:36.248Z,9.30
2019-01-18T14:03:05.476Z,8.30
2019-01-18T14:05:34.568Z,8.30
2019-01-18T14:08:03.696Z,9.10
2019-01-18T14:10:32.820Z,8.70
2019-01-18T14:13:02.245Z,8.20
2019-01-18T14:15:31.356Z,8.20
2019-01-18T14:18:00.539Z,7.80
2019-01-18T14:20:29.689Z,7.60
2019-01-18T14:22:58.811Z,7.40
2019-01-18T14:25:28.051Z,7.20
2019-01-18T14:27:57.246Z,6.80
2019-01-18T14:30:26.656Z,6.70
2019-01-18T14:32:56.062Z,6.20
2019-01-18T14:35:25.449Z,6.20
2019-01-18T14:37:54.675Z,6.30
2019-01-18T14:40:23.793Z,5.90
2019-01-18T14:42:53.012Z,5.80
2019-01-18T14:45:25.234Z,5.50
2019-01-18T14:47:54.356Z,5.50
2019-01-18T14:50:23.475Z,5.30
2019-01-18T14:52:52.584Z,5.10
2019-01-18T14:55:21.788Z,4.90
2019-01-18T14:57:51.038Z,4.70
2019-01-18T15:00:23.510Z,4.50
2019-01-18T15:02:52.835Z,4.40
2019-01-18T15:05:22.221Z,4.30
2019-01-18T15:07:51.496Z,4.20
2019-01-18T15:10:21.776Z,4.10
2019-01-18T15:12:52.988Z,3.90
2019-01-18T15:15:22.188Z,3.60
2019-01-18T15:17:51.731Z,3.50
2019-01-18T15:20:23.136Z,3.50
2019-01-18T15:22:52.376Z,3.40
2019-01-18T15:25:22.361Z,3.30
2019-01-18T15:27:51.543Z,3.20
2019-01-18T15:30:22.869Z,3.10
2019-01-18T15:32:52.045Z,2.90
2019-01-18T15:35:23.559Z,2.80
2019-01-18T15:37:52.840Z,2.70
2019-01-18T15:40:24.111Z,2.60
2019-01-18T15:42:53.549Z,2.50
2019-01-18T15:45:23.870Z,2.40
2019-01-18T15:47:53.167Z,2.30
2019-01-18T15:50:27.538Z,2.20
2019-01-18T15:52:56.895Z,2.00
2019-01-18T15:55:26.634Z,1.90
2019-01-18T15:57:56.049Z,1.70
2019-01-18T16:00:32.223Z,1.60
2019-01-18T16:03:01.867Z,1.60
2019-01-18T16:05:31.508Z,1.40
2019-01-18T16:08:00.739Z,1.30
2019-01-18T16:10:30.045Z,1.30
2019-01-18T16:12:59.177Z,1.20
2019-01-18T16:15:38.244Z,1.10
2019-01-18T16:18:10.637Z,1.10
2019-01-18T16:20:39.964Z,0.90
2019-01-18T16:23:09.206Z,0.90
2019-01-18T16:25:38.367Z,0.80
2019-01-18T16:28:07.534Z,0.80
2019-01-18T16:30:36.728Z,0.80
2019-01-18T16:33:06.031Z,0.70
2019-01-18T16:35:35.272Z,0.70
2019-01-18T16:38:05.415Z,0.60
2019-01-18T16:40:34.753Z,0.60
2019-01-18T16:43:13.642Z,0.60
2019-01-18T16:45:43.152Z,0.50
2019-01-18T16:48:16.179Z,0.30
2019-01-18T16:50:46.897Z,0.20
2019-01-18T16:53:16.315Z,0.20
2019-01-18T16:55:46.128Z,0.10
2019-01-18T16:58:15.519Z,0.10
2019-01-18T17:00:47.534Z,0.10
2019-01-18T17:03:16.867Z,0.00
2019-01-18T17:05:46.102Z,-0.10
2019-01-18T17:08:15.411Z,-0.10
2019-01-18T17:10:44.580Z,-0.10
2019-01-18T17:13:13.857Z,-0.10
2019-01-18T17:15:43.243Z,-0.20
2019-01-18T17:18:13.022Z,-0.20
2019-01-18T17:20:43.513Z,-0.20
2019-01-18T17:23:12.720Z,-0.30
2019-01-18T17:25:41.895Z,-0.30
2019-01-18T17:28:11.021Z,-0.40
2019-01-18T17:30:40.261Z,-0.40
2019-01-18T17:33:11.892Z,-0.30
2019-01-18T17:35:47.726Z,-0.50
2019-01-18T17:38:37.021Z,-0.50
2019-01-18T17:41:30.249Z,-0.50
2019-01-18T17:44:41.192Z,-0.40
2019-01-18T17:47:56.210Z,-0.50
2019-01-18T17:51:09.235Z,-0.60
2019-01-18T17:54:12.925Z,-0.70
2019-01-18T17:57:41.486Z,-0.70
2019-01-18T18:00:38.650Z,-0.70
2019-01-18T18:03:58.135Z,-0.80
2019-01-18T18:06:43.515Z,-0.90
2019-01-18T18:09:38.231Z,-0.90
2019-01-18T18:12:49.628Z,-1.00
2019-01-18T18:15:36.982Z,-1.00
2019-01-18T18:18:45.084Z,-1.00
2019-01-18T18:21:25.041Z,-1.10
2019-01-18T18:24:22.153Z,-1.10
2019-01-18T18:27:35.891Z,-1.20
2019-01-18T18:30:32.634Z,-1.20
2019-01-18T18:33:38.917Z,-1.30
2019-01-18T18:37:01.847Z,-1.40
2019-01-18T18:40:15.908Z,-1.40
2019-01-18T18:43:13.675Z,-1.40
2019-01-18T18:46:19.132Z,-1.50
2019-01-18T18:49:38.928Z,-1.40
2019-01-18T18:52:57.253Z,-1.50
2019-01-18T18:56:07.400Z,-1.50
2019-01-18T18:59:36.314Z,-1.60
2019-01-18T19:02:31.470Z,-1.60
2019-01-18T19:05:36.036Z,-1.60
2019-01-18T19:08:31.958Z,-1.70
2019-01-18T19:11:28.837Z,-1.60
2019-01-18T19:14:49.473Z,-1.70
2019-01-18T19:18:09.412Z,-1.60
2019-01-18T19:21:15.959Z,-1.70
2019-01-18T19:24:09.080Z,-1.70
2019-01-18T19:27:03.370Z,-1.60
2019-01-18T19:29:43.072Z,-1.70
2019-01-18T19:32:49.089Z,-1.70
2019-01-18T19:35:53.127Z,-1.80
2019-01-18T19:39:15.427Z,-1.80
2019-01-18T19:42:24.814Z,-1.80
2019-01-18T19:45:38.676Z,-1.90
2019-01-18T19:48:56.473Z,-2.00
2019-01-18T19:51:44.898Z,-2.00
2019-01-18T19:54:37.772Z,-2.10
2019-01-18T19:57:42.853Z,-2.10
2019-01-18T20:00:59.156Z,-2.10
2019-01-18T20:03:56.012Z,-2.10
2019-01-18T20:07:13.727Z,-2.10
2019-01-18T20:09:54.304Z,-2.10
2019-01-18T20:13:00.675Z,-2.20
2019-01-18T20:16:09.248Z,-2.30
2019-01-18T20:19:05.273Z,-2.40
2019-01-18T20:22:03.574Z,-2.30
2019-01-18T20:25:29.131Z,-2.50
2019-01-18T20:28:45.841Z,-2.40
2019-01-18T20:31:49.758Z,-2.50
2019-01-18T20:34:55.192Z,-2.40
2019-01-18T20:37:42.888Z,-2.40
2019-01-18T20:41:01.409Z,-2.30
2019-01-18T20:44:05.307Z,-2.40
2019-01-18T20:47:09.785Z,-2.30
2019-01-18T20:50:29.101Z,-2.30
2019-01-18T20:53:31.355Z,-2.40
2019-01-18T20:56:21.920Z,-2.50
2019-01-18T20:59:21.323Z,-2.50
2019-01-18T21:02:26.039Z,-2.50
2019-01-18T21:05:42.139Z,-2.60
2019-01-18T21:08:23.086Z,-2.60
2019-01-18T21:11:07.885Z,-2.60
2019-01-18T21:14:00.007Z,-2.50
2019-01-18T21:17:10.890Z,-2.60
2019-01-18T21:20:10.131Z,-2.60
2019-01-18T21:23:20.560Z,-2.60
2019-01-18T21:26:28.209Z,-2.60
2019-01-18T21:29:43.319Z,-2.60
2019-01-18T21:32:44.072Z,-2.50
2019-01-18T21:35:44.257Z,-2.60
2019-01-18T21:39:09.959Z,-2.70
2019-01-18T21:42:35.241Z,-2.80
2019-01-18T21:45:40.275Z,-2.80
2019-01-18T21:48:37.470Z,-3.00
2019-01-18T21:51:35.821Z,-3.10
2019-01-18T21:54:29.694Z,-3.10
2019-01-18T21:57:46.398Z,-3.10
2019-01-18T22:00:44.633Z,-3.10
2019-01-18T22:03:38.368Z,-3.20
2019-01-18T22:06:44.965Z,-3.20
2019-01-18T22:09:48.490Z,-3.30
2019-01-18T22:12:53.859Z,-3.40
2019-01-18T22:15:47.009Z,-3.40
2019-01-18T22:18:48.797Z,-3.40
2019-01-18T22:21:45.274Z,-3.40
2019-01-18T22:24:23.722Z,-3.40
2019-01-18T22:27:20.863Z,-3.50
2019-01-18T22:30:52.516Z,-3.40
2019-01-18T22:33:36.031Z,-3.50
2019-01-18T22:36:45.060Z,-3.50
2019-01-18T22:40:04.040Z,-3.60
2019-01-18T22:43:06.819Z,-3.60
2019-01-18T22:46:13.016Z,-3.70
2019-01-18T22:49:14.020Z,-3.70
2019-01-18T22:52:08.374Z,-3.70
2019-01-18T22:55:15.826Z,-3.80
2019-01-18T22:58:17.614Z,-3.80
2019-01-18T23:01:27.416Z,-3.90
2019-01-18T23:04:21.266Z,-3.90
2019-01-18T23:07:20.798Z,-3.90
2019-01-18T23:10:03.784Z,-3.90
2019-01-18T23:12:53.241Z,-4.00
2019-01-18T23:16:10.924Z,-4.00
2019-01-18T23:18:54.679Z,-4.00
2019-01-18T23:21:51.818Z,-4.10
2019-01-18T23:24:46.705Z,-4.10
2019-01-18T23:28:21.588Z,-4.10
2019-01-18T23:31:00.548Z,-4.00
2019-01-18T23:34:14.268Z,-4.00
2019-01-18T23:36:58.701Z,-4.00
2019-01-18T23:40:04.909Z,-4.10
2019-01-18T23:43:02.222Z,-4.20
2019-01-18T23:46:06.775Z,-4.10
2019-01-18T23:49:07.037Z,-4.10
2019-01-18T23:52:13.201Z,-4.10
2019-01-18T23:55:32.043Z,-4.00
2019-01-18T23:58:28.229Z,-4.10
